createdAt,value
2022-12-08T00:02:51.558Z,9.60
2022-12-08T00:05:57.490Z,15.10
2022-12-08T00:09:02.945Z,14.00
2022-12-08T00:12:02.837Z,14.80
2022-12-08T00:14:49.928Z,17.00
2022-12-08T00:17:36.823Z,17.10
2022-12-08T00:20:23.457Z,10.20
2022-12-08T00:23:10.238Z,12.50
2022-12-08T00:25:56.992Z,11.30
2022-12-08T00:28:43.837Z,12.60
2022-12-08T00:31:30.443Z,13.50
2022-12-08T00:34:17.560Z,15.70
2022-12-08T00:37:04.271Z,12.60
2022-12-08T00:39:51.508Z,11.70
2022-12-08T00:42:38.368Z,10.60
2022-12-08T00:45:25.253Z,12.00
2022-12-08T00:48:11.543Z,12.00
2022-12-08T00:50:58.283Z,11.10
2022-12-08T00:53:45.031Z,11.90
2022-12-08T00:56:32.292Z,10.40
2022-12-08T00:59:19.061Z,10.20
2022-12-08T01:02:05.945Z,10.10
2022-12-08T01:04:52.642Z,12.00
2022-12-08T01:07:39.436Z,9.10
2022-12-08T01:10:26.231Z,12.80
2022-12-08T01:13:13.291Z,9.50
2022-12-08T01:16:00.096Z,10.80
2022-12-08T01:18:47.263Z,11.30
2022-12-08T01:21:34.104Z,9.50
2022-12-08T01:24:21.696Z,10.20
2022-12-08T01:27:08.602Z,11.00
2022-12-08T01:29:55.288Z,8.70
2022-12-08T01:32:41.958Z,10.00
2022-12-08T01:35:28.694Z,9.00
2022-12-08T01:38:15.560Z,7.40
2022-12-08T01:41:02.333Z,8.80
2022-12-08T01:43:55.501Z,7.80
2022-12-08T01:46:44.589Z,8.80
2022-12-08T01:49:35.140Z,10.70
2022-12-08T01:52:38.295Z,11.10
2022-12-08T01:55:30.941Z,8.70
2022-12-08T01:58:24.237Z,8.10
2022-12-08T02:04:52.278Z,10.20
2022-12-08T02:07:39.676Z,8.90
2022-12-08T02:10:30.395Z,9.00
2022-12-08T02:13:20.953Z,8.60
2022-12-08T02:16:29.355Z,8.40
2022-12-08T02:19:30.706Z,8.50
2022-12-08T02:23:06.065Z,9.80
2022-12-08T02:26:06.882Z,9.90
2022-12-08T02:29:04.103Z,10.50
2022-12-08T02:32:12.448Z,9.50
2022-12-08T02:34:59.583Z,6.50
2022-12-08T02:37:52.557Z,11.20
2022-12-08T02:41:02.596Z,7.50
2022-12-08T02:44:07.834Z,13.50
2022-12-08T02:46:59.035Z,10.00
2022-12-08T02:49:46.371Z,8.50
2022-12-08T02:52:33.378Z,8.30
2022-12-08T02:55:28.614Z,9.30
2022-12-08T02:58:21.578Z,7.80
2022-12-08T03:01:23.328Z,8.30
2022-12-08T03:04:18.331Z,9.90
2022-12-08T03:07:12.898Z,10.40
2022-12-08T03:10:13.591Z,8.60
2022-12-08T03:13:13.078Z,11.20
2022-12-08T03:16:08.244Z,11.00
2022-12-08T03:19:05.896Z,10.40
2022-12-08T03:22:03.349Z,10.90
2022-12-08T03:24:56.554Z,8.50
2022-12-08T03:27:44.144Z,9.10
2022-12-08T03:30:35.277Z,11.30
2022-12-08T03:33:31.405Z,9.00
2022-12-08T03:36:19.471Z,9.20
2022-12-08T03:39:06.708Z,10.70
2022-12-08T03:41:53.794Z,12.40
2022-12-08T03:44:41.388Z,10.00
2022-12-08T03:47:33.283Z,10.20
2022-12-08T03:50:29.089Z,11.10
2022-12-08T03:53:15.664Z,10.50
2022-12-08T03:56:05.990Z,10.00
2022-12-08T03:58:53.017Z,9.90
2022-12-08T04:01:40.182Z,9.90
2022-12-08T04:04:27.039Z,8.20
2022-12-08T04:07:14.325Z,12.60
2022-12-08T04:10:01.714Z,14.10
2022-12-08T04:12:48.865Z,8.80
2022-12-08T04:15:35.721Z,10.00
2022-12-08T04:18:27.650Z,12.80
2022-12-08T04:21:14.752Z,10.10
2022-12-08T04:24:01.800Z,11.90
2022-12-08T04:26:49.814Z,11.00
2022-12-08T04:29:36.909Z,10.20
2022-12-08T04:32:23.733Z,8.00
2022-12-08T04:35:10.439Z,8.20
2022-12-08T04:37:57.390Z,7.00
2022-12-08T04:40:44.295Z,11.20
2022-12-08T04:43:31.173Z,9.60
2022-12-08T04:46:18.131Z,9.30
2022-12-08T04:49:06.379Z,10.40
2022-12-08T04:51:53.262Z,8.50
2022-12-08T04:54:40.134Z,9.00
2022-12-08T04:57:27.065Z,10.40
2022-12-08T05:00:15.159Z,9.70
2022-12-08T05:03:02.314Z,10.10
2022-12-08T05:05:49.168Z,8.90
2022-12-08T05:08:35.869Z,11.50
2022-12-08T05:11:22.635Z,13.30
2022-12-08T05:14:11.903Z,11.00
2022-12-08T05:16:58.726Z,9.60
2022-12-08T05:19:45.668Z,11.20
2022-12-08T05:22:32.583Z,10.70
2022-12-08T05:25:19.576Z,11.50
2022-12-08T05:28:39.450Z,11.30
2022-12-08T05:31:15.214Z,10.20
2022-12-08T05:34:03.483Z,9.50
2022-12-08T05:36:50.701Z,9.40
2022-12-08T05:39:37.625Z,12.20
2022-12-08T05:42:25.068Z,10.30
2022-12-08T05:45:12.919Z,9.90
2022-12-08T05:47:59.862Z,12.00
2022-12-08T05:50:50.600Z,10.40
2022-12-08T05:53:37.368Z,9.20
2022-12-08T05:56:24.604Z,11.60
2022-12-08T05:59:11.455Z,10.70
2022-12-08T06:01:58.362Z,11.90
2022-12-08T06:04:45.584Z,16.90
2022-12-08T06:07:35.782Z,14.60
2022-12-08T06:10:22.649Z,11.60
2022-12-08T06:13:09.716Z,10.90
2022-12-08T06:15:56.699Z,11.60
2022-12-08T06:18:44.143Z,11.70
2022-12-08T06:21:36.353Z,11.90
2022-12-08T06:24:22.871Z,15.00
2022-12-08T06:27:09.678Z,12.70
2022-12-08T06:29:57.528Z,13.40
2022-12-08T06:32:44.888Z,11.70
2022-12-08T06:35:31.874Z,10.20
2022-12-08T06:38:19.347Z,13.70
2022-12-08T06:41:08.478Z,10.70
2022-12-08T06:43:58.896Z,12.60
2022-12-08T06:46:45.956Z,11.30
2022-12-08T06:49:32.749Z,14.00
2022-12-08T06:52:19.746Z,36.20
2022-12-08T06:55:07.071Z,47.00
2022-12-08T06:57:54.255Z,30.30
2022-12-08T07:00:42.261Z,32.60
2022-12-08T07:03:35.120Z,28.20
2022-12-08T07:06:24.939Z,20.80
2022-12-08T07:09:16.809Z,20.30
2022-12-08T07:12:09.856Z,18.20
2022-12-08T07:15:02.130Z,12.70
2022-12-08T07:17:49.750Z,12.70
2022-12-08T07:20:38.489Z,12.10
2022-12-08T07:23:25.458Z,11.00
2022-12-08T07:26:13.452Z,12.60
2022-12-08T07:29:01.151Z,60.40
2022-12-08T07:31:53.026Z,14.20
2022-12-08T07:34:47.085Z,15.40
2022-12-08T07:37:35.723Z,34.70
2022-12-08T07:40:22.318Z,18.30
2022-12-08T07:43:14.209Z,27.80
2022-12-08T07:46:06.144Z,72.70
2022-12-08T07:48:59.027Z,22.60
2022-12-08T07:51:50.871Z,30.60
2022-12-08T07:54:38.056Z,16.10
2022-12-08T07:57:30.014Z,16.10
2022-12-08T08:00:22.415Z,23.50
2022-12-08T08:03:14.170Z,42.30
2022-12-08T08:06:06.437Z,38.10
2022-12-08T08:08:58.553Z,41.00
2022-12-08T08:12:14.332Z,27.50
2022-12-08T08:15:05.360Z,39.10
2022-12-08T08:17:57.534Z,15.90
2022-12-08T08:20:47.811Z,13.00
2022-12-08T08:23:52.957Z,13.40
2022-12-08T08:26:48.804Z,15.40
2022-12-08T08:29:41.249Z,12.30
2022-12-08T08:32:33.980Z,12.20
2022-12-08T08:35:20.796Z,16.70
2022-12-08T08:38:12.279Z,12.90
2022-12-08T08:41:08.985Z,11.40
2022-12-08T08:44:00.545Z,14.20
2022-12-08T08:46:47.658Z,12.40
2022-12-08T08:49:39.600Z,19.60
2022-12-08T08:52:31.626Z,17.70
2022-12-08T08:55:23.396Z,13.60
2022-12-08T08:58:16.341Z,13.60
2022-12-08T09:02:42.275Z,13.40
2022-12-08T09:06:17.198Z,16.80
2022-12-08T09:11:57.361Z,16.10
2022-12-08T09:14:49.068Z,13.30
2022-12-08T09:17:41.017Z,12.70
2022-12-08T09:20:33.637Z,13.40
2022-12-08T09:23:30.708Z,12.30
2022-12-08T09:26:26.132Z,10.80
2022-12-08T09:29:18.336Z,13.20
2022-12-08T09:35:03.077Z,11.50
2022-12-08T09:37:49.637Z,9.90
2022-12-08T09:40:47.537Z,11.50
2022-12-08T09:45:12.413Z,12.40
2022-12-08T09:48:02.667Z,11.80
2022-12-08T09:50:57.946Z,12.30
2022-12-08T09:54:16.521Z,12.00
2022-12-08T09:57:13.555Z,14.50
2022-12-08T10:00:06.490Z,13.00
2022-12-08T10:02:53.328Z,14.80
2022-12-08T10:05:47.902Z,11.50
2022-12-08T10:08:59.779Z,11.10
2022-12-08T10:12:04.515Z,11.10
2022-12-08T10:15:14.775Z,10.80
2022-12-08T10:18:18.272Z,9.60
2022-12-08T10:21:22.300Z,10.30
2022-12-08T10:24:31.778Z,10.00
2022-12-08T10:28:45.544Z,8.70
2022-12-08T10:31:33.310Z,9.90
2022-12-08T10:34:24.281Z,20.50
2022-12-08T10:37:17.298Z,20.40
2022-12-08T10:40:14.141Z,11.80
2022-12-08T10:43:13.995Z,10.30
2022-12-08T10:46:14.450Z,8.30
2022-12-08T10:49:06.060Z,7.90
2022-12-08T10:53:25.149Z,9.70
2022-12-08T10:56:17.705Z,9.40
2022-12-08T10:59:13.937Z,10.50
2022-12-08T11:02:10.163Z,6.30
2022-12-08T11:05:01.658Z,8.30
2022-12-08T11:07:52.913Z,12.00
2022-12-08T11:10:45.173Z,12.80
2022-12-08T11:13:38.567Z,10.30
2022-12-08T11:16:30.958Z,10.30
2022-12-08T11:19:18.525Z,9.20
2022-12-08T11:22:26.973Z,7.00
2022-12-08T11:25:24.984Z,7.00
2022-12-08T11:28:16.000Z,7.60
2022-12-08T11:31:14.960Z,10.20
2022-12-08T11:34:06.947Z,8.10
2022-12-08T11:39:53.711Z,7.90
2022-12-08T11:43:00.540Z,8.80
2022-12-08T11:46:00.280Z,6.20
2022-12-08T11:49:06.234Z,7.10
2022-12-08T11:53:30.558Z,7.40
2022-12-08T11:56:32.514Z,8.60
2022-12-08T12:03:32.799Z,6.30
2022-12-08T12:06:53.684Z,9.30
2022-12-08T12:10:27.964Z,7.80
2022-12-08T12:13:29.711Z,5.70
2022-12-08T12:16:21.750Z,6.70
2022-12-08T12:19:16.186Z,8.40
2022-12-08T12:22:16.427Z,6.50
2022-12-08T12:25:18.965Z,5.70
2022-12-08T12:28:07.774Z,7.80
2022-12-08T12:31:09.836Z,10.00
2022-12-08T12:34:15.029Z,7.30
2022-12-08T12:37:11.372Z,6.50
2022-12-08T12:40:05.903Z,5.60
2022-12-08T12:42:56.404Z,5.80
2022-12-08T12:45:45.037Z,7.00
2022-12-08T12:48:36.981Z,6.20
2022-12-08T12:51:36.614Z,7.80
2022-12-08T12:54:29.318Z,5.60
2022-12-08T12:57:20.850Z,5.40
2022-12-08T13:00:08.805Z,3.90
2022-12-08T13:02:57.898Z,7.20
2022-12-08T13:05:51.283Z,7.20
2022-12-08T13:08:51.241Z,6.10
2022-12-08T13:11:47.945Z,7.10
2022-12-08T13:14:37.096Z,6.20
2022-12-08T13:17:27.264Z,7.40
2022-12-08T13:20:22.037Z,9.00
2022-12-08T13:23:13.581Z,7.30
2022-12-08T13:26:19.113Z,10.80
2022-12-08T13:29:13.222Z,9.60
2022-12-08T13:32:25.236Z,7.30
2022-12-08T13:35:12.199Z,8.40
2022-12-08T13:38:04.636Z,6.60
2022-12-08T13:44:31.093Z,15.70
2022-12-08T14:00:06.725Z,12.70
2022-12-08T14:03:11.304Z,16.20
2022-12-08T14:06:13.847Z,14.00
2022-12-08T14:12:05.393Z,12.90
2022-12-08T14:15:03.174Z,16.90
2022-12-08T14:17:53.517Z,14.50
2022-12-08T14:21:19.617Z,12.90
2022-12-08T14:24:01.195Z,11.90
2022-12-08T14:26:50.016Z,17.00
2022-12-08T14:29:39.047Z,13.80
2022-12-08T14:32:28.941Z,17.30
2022-12-08T14:35:20.014Z,16.00
2022-12-08T14:38:13.263Z,19.00
2022-12-08T14:41:06.254Z,13.10
2022-12-08T14:43:58.376Z,22.80
2022-12-08T14:49:33.620Z,25.30
2022-12-08T14:52:21.387Z,20.10
2022-12-08T14:55:15.549Z,17.60
2022-12-08T14:58:02.424Z,15.00
2022-12-08T15:00:57.007Z,15.40
2022-12-08T15:03:50.398Z,21.60
2022-12-08T15:06:58.643Z,31.10
2022-12-08T15:10:06.186Z,36.90
2022-12-08T15:12:58.392Z,35.10
2022-12-08T15:15:50.131Z,20.10
2022-12-08T15:20:05.726Z,19.30
2022-12-08T15:22:58.137Z,18.50
2022-12-08T15:25:50.020Z,15.90
2022-12-08T15:28:41.728Z,18.20
2022-12-08T15:31:34.522Z,14.80
2022-12-08T15:34:21.138Z,18.20
2022-12-08T15:37:20.693Z,19.90
2022-12-08T15:40:20.629Z,23.30
2022-12-08T15:43:12.375Z,17.10
2022-12-08T15:46:00.218Z,21.00
2022-12-08T15:48:57.760Z,20.90
2022-12-08T15:51:50.475Z,22.40
2022-12-08T15:54:42.346Z,21.90
2022-12-08T15:58:24.904Z,21.70
2022-12-08T16:00:52.347Z,26.00
2022-12-08T16:04:20.271Z,20.50
2022-12-08T16:09:59.527Z,19.00
2022-12-08T16:13:55.440Z,22.20
2022-12-08T16:16:21.654Z,22.50
2022-12-08T16:19:09.773Z,20.30
2022-12-08T16:25:17.865Z,27.10
2022-12-08T16:28:45.309Z,17.70
2022-12-08T16:31:23.510Z,24.90
2022-12-08T16:34:15.582Z,26.60
2022-12-08T16:37:08.814Z,30.70
2022-12-08T16:40:00.705Z,33.40
2022-12-08T16:42:53.877Z,26.30
2022-12-08T16:45:45.006Z,28.40
2022-12-08T16:48:32.193Z,28.30
2022-12-08T16:51:27.044Z,23.60
2022-12-08T16:54:14.359Z,25.10
2022-12-08T16:57:06.543Z,29.60
2022-12-08T16:59:58.466Z,27.10
2022-12-08T17:02:50.560Z,27.70
2022-12-08T17:05:39.551Z,23.00
2022-12-08T17:08:26.457Z,25.20
2022-12-08T17:11:23.631Z,27.00
2022-12-08T17:14:12.132Z,18.40
2022-12-08T17:16:59.483Z,24.70
2022-12-08T17:19:46.317Z,26.60
2022-12-08T17:22:33.907Z,24.70
2022-12-08T17:25:26.430Z,26.40
2022-12-08T17:29:00.697Z,25.10
2022-12-08T17:31:48.655Z,23.90
2022-12-08T17:34:40.187Z,23.90
2022-12-08T17:37:26.978Z,26.10
2022-12-08T17:40:13.796Z,26.30
2022-12-08T17:43:00.620Z,25.10
2022-12-08T17:45:52.928Z,21.40
2022-12-08T17:51:26.819Z,24.60
2022-12-08T17:54:13.971Z,23.10
2022-12-08T17:57:06.102Z,24.10
2022-12-08T17:59:52.790Z,22.60
2022-12-08T18:02:44.911Z,23.50
2022-12-08T18:05:31.631Z,24.50
2022-12-08T18:08:18.779Z,24.80
2022-12-08T18:11:12.249Z,23.20
2022-12-08T18:13:59.545Z,22.40
2022-12-08T18:16:47.302Z,26.00
2022-12-08T18:19:34.079Z,25.30
2022-12-08T18:22:20.983Z,23.10
2022-12-08T18:25:08.483Z,24.70
2022-12-08T18:28:00.100Z,25.40
2022-12-08T18:30:47.354Z,25.40
2022-12-08T18:33:42.523Z,29.80
2022-12-08T18:36:29.304Z,34.80
2022-12-08T18:39:24.243Z,46.50
2022-12-08T18:42:25.342Z,36.40
2022-12-08T18:45:22.619Z,43.80
2022-12-08T18:48:09.806Z,24.00
2022-12-08T18:50:56.603Z,29.90
2022-12-08T18:53:49.261Z,30.60
2022-12-08T18:56:36.490Z,42.80
2022-12-08T18:59:23.437Z,34.90
2022-12-08T19:02:11.283Z,28.50
2022-12-08T19:05:03.253Z,27.00
2022-12-08T19:07:52.165Z,27.10
2022-12-08T19:10:40.344Z,26.90
2022-12-08T19:13:32.186Z,24.30
2022-12-08T19:16:18.764Z,24.00
2022-12-08T19:19:05.718Z,23.30
2022-12-08T19:21:52.987Z,26.50
2022-12-08T19:24:40.010Z,25.80
2022-12-08T19:27:34.287Z,26.50
2022-12-08T19:30:21.087Z,22.00
2022-12-08T19:33:07.945Z,21.30
2022-12-08T19:35:54.909Z,25.40
2022-12-08T19:39:00.569Z,22.00
2022-12-08T19:42:11.344Z,22.60
2022-12-08T19:44:59.646Z,30.60
2022-12-08T19:47:47.707Z,26.10
2022-12-08T19:50:40.599Z,25.10
2022-12-08T19:53:27.419Z,28.20
2022-12-08T19:56:14.251Z,26.80
2022-12-08T19:59:01.240Z,31.70
2022-12-08T20:01:48.621Z,30.90
2022-12-08T20:04:40.605Z,35.10
2022-12-08T20:07:33.069Z,37.30
2022-12-08T20:13:30.362Z,45.70
2022-12-08T20:16:17.764Z,35.30
2022-12-08T20:19:09.931Z,39.80
2022-12-08T20:21:57.754Z,27.30
2022-12-08T20:24:56.427Z,27.30
2022-12-08T20:27:44.898Z,29.50
2022-12-08T20:30:31.811Z,26.90
2022-12-08T20:33:19.287Z,27.10
2022-12-08T20:36:13.016Z,31.40
2022-12-08T20:38:59.922Z,29.50
2022-12-08T20:41:54.444Z,34.50
2022-12-08T20:44:46.279Z,28.60
2022-12-08T20:47:33.229Z,30.90
2022-12-08T20:50:19.869Z,35.10
2022-12-08T20:53:06.803Z,36.60
2022-12-08T20:55:53.742Z,36.40
2022-12-08T20:58:40.905Z,32.30
2022-12-08T21:01:33.100Z,33.20
2022-12-08T21:04:20.608Z,34.50
2022-12-08T21:07:12.691Z,36.70
2022-12-08T21:09:59.336Z,34.20
2022-12-08T21:12:50.957Z,26.40
2022-12-08T21:15:37.967Z,28.80
2022-12-08T21:18:33.217Z,31.10
2022-12-08T21:21:22.951Z,28.50
2022-12-08T21:24:15.810Z,31.00
2022-12-08T21:27:02.905Z,32.50
2022-12-08T21:29:49.710Z,35.20
2022-12-08T21:32:42.079Z,38.80
2022-12-08T21:35:29.115Z,30.10
2022-12-08T21:38:21.554Z,32.80
2022-12-08T21:41:14.841Z,35.80
2022-12-08T21:45:52.346Z,40.80
2022-12-08T21:48:45.139Z,34.40
2022-12-08T21:51:42.324Z,29.80
2022-12-08T21:54:29.301Z,35.20
2022-12-08T21:57:16.165Z,33.70
2022-12-08T22:00:03.177Z,38.10
2022-12-08T22:02:57.602Z,43.40
2022-12-08T22:05:44.691Z,35.90
2022-12-08T22:08:32.032Z,41.70
2022-12-08T22:16:00.000Z,42.30
2022-12-08T22:18:46.740Z,43.90
2022-12-08T22:21:33.978Z,45.80
2022-12-08T22:24:20.967Z,44.60
2022-12-08T22:27:08.283Z,42.90
2022-12-08T22:29:55.285Z,60.80
2022-12-08T22:32:42.667Z,43.50
2022-12-08T22:35:29.610Z,55.60
2022-12-08T22:38:16.478Z,53.80
2022-12-08T22:41:04.959Z,62.50
2022-12-08T22:43:52.403Z,56.70
2022-12-08T22:46:39.457Z,56.30
2022-12-08T22:49:26.562Z,55.30
2022-12-08T22:52:13.015Z,55.60
2022-12-08T22:55:00.281Z,57.60
2022-12-08T22:57:46.951Z,58.50
2022-12-08T23:00:34.256Z,57.20
2022-12-08T23:03:21.412Z,54.40
2022-12-08T23:06:12.407Z,49.50
2022-12-08T23:08:59.378Z,52.00
2022-12-08T23:11:46.764Z,52.00
2022-12-08T23:14:33.473Z,51.90
2022-12-08T23:17:20.755Z,48.50
2022-12-08T23:20:08.034Z,39.50
2022-12-08T23:22:54.882Z,51.60
2022-12-08T23:25:42.296Z,48.80
2022-12-08T23:28:29.338Z,52.70
2022-12-08T23:31:16.518Z,48.20
2022-12-08T23:34:03.996Z,51.60
2022-12-08T23:36:51.066Z,48.80
2022-12-08T23:39:38.318Z,59.00
2022-12-08T23:42:24.874Z,44.90
2022-12-08T23:45:12.114Z,50.60
2022-12-08T23:47:58.632Z,56.00
2022-12-08T23:50:45.825Z,48.70
2022-12-08T23:53:33.170Z,49.70
2022-12-08T23:56:22.189Z,49.80
2022-12-08T23:59:11.194Z,49.60
